Terminal Aerodrome Forecast
Issued by NWS

Home | Current Version | Previous Version | Text Only | Print | Product List | Glossary On
Versions: 1 2 3 4 5 6 7 8 9 10 11 12 13 14 15 16 17
000
FTUS46 KSEW 192330
TAFHQM
TAF
KHQM 192330Z 2000/2024 19017G21KT 4SM -RA BR SCT012 BKN018 OVC030
     FM200200 17011KT 5SM BR VCSH OVC030
     FM201100 06013G24KT P6SM VCSH SCT030 OVC070
     FM201800 06011KT P6SM OVC060 PROB30 2020/2024 4SM -RA OVC050=

USA.gov is the U.S. government's official web portal to all federal, state and local government web resources and services.